Time;durP1;ratioP1;P1;durP2;ratioP2;P2;SDS_P1;SDS_P2;PMS_P1;PMS_P2;Temp;Humidity;BMP_temperature;BMP_pressure;BME280_temperature;BME280_humidity;BME280_pressure;Samples;Min_cycle;Max_cycle;Signal;HPM_P1;HPM_P2
2021/06/25 00:00:40;;;;;;;14.07;9.53;;;24.60;82.70;;;;;;1887147;76;21524;-50
2021/06/25 00:03:10;;;;;;;16.57;9.60;;;24.60;82.70;;;;;;1887029;76;21073;-49
2021/06/25 00:05:40;;;;;;;18.50;9.98;;;24.60;82.70;;;;;;1887171;76;21010;-50
2021/06/25 00:08:09;;;;;;;15.70;9.53;;;24.70;82.70;;;;;;1887006;76;21034;-50
2021/06/25 00:10:39;;;;;;;12.28;9.03;;;24.70;82.60;;;;;;1887142;76;21009;-48
2021/06/25 00:13:08;;;;;;;13.62;8.35;;;24.70;82.50;;;;;;1887150;76;21014;-50
2021/06/25 00:15:38;;;;;;;16.02;9.13;;;24.80;82.40;;;;;;1887027;75;21018;-47
2021/06/25 00:18:08;;;;;;;18.35;10.13;;;24.80;82.30;;;;;;1887016;76;21049;-49
2021/06/25 00:20:37;;;;;;;10.88;8.78;;;24.80;82.80;;;;;;1887135;75;21061;-47
2021/06/25 00:23:06;;;;;;;14.98;9.05;;;24.80;82.20;;;;;;1886974;76;21129;-50
2021/06/25 00:25:36;;;;;;;17.95;8.55;;;24.80;82.20;;;;;;1887136;75;21033;-49
2021/06/25 00:28:05;;;;;;;11.78;8.65;;;24.80;82.10;;;;;;1887033;76;21038;-50
2021/06/25 00:30:35;;;;;;;17.50;9.93;;;24.80;82.00;;;;;;1887108;76;21026;-47
2021/06/25 00:33:04;;;;;;;12.47;9.78;;;24.80;82.10;;;;;;1886982;76;21123;-48
2021/06/25 00:35:34;;;;;;;12.35;10.43;;;24.80;82.10;;;;;;1887120;75;21127;-47
2021/06/25 00:38:03;;;;;;;13.00;9.00;;;24.70;81.90;;;;;;1886998;76;21030;-49
2021/06/25 00:40:36;;;;;;;12.93;8.95;;;24.70;81.90;;;;;;1887035;76;21033;-49
2021/06/25 00:43:06;;;;;;;15.43;9.88;;;24.70;81.90;;;;;;1887004;76;21100;-47
2021/06/25 00:45:35;;;;;;;16.50;9.65;;;24.60;81.90;;;;;;1886987;76;21111;-49
2021/06/25 00:48:05;;;;;;;16.23;9.68;;;24.60;81.90;;;;;;1887009;76;21109;-50
2021/06/25 00:50:36;;;;;;;12.58;9.83;;;24.60;82.00;;;;;;1887022;76;21104;-50
2021/06/25 00:53:06;;;;;;;21.73;10.05;;;24.50;82.10;;;;;;1886995;76;21030;-48
2021/06/25 00:55:42;;;;;;;22.37;9.78;;;24.50;82.10;;;;;;1886972;76;21103;-50
2021/06/25 00:58:14;;;;;;;16.05;9.80;;;24.50;81.90;;;;;;1887031;76;21104;-49
2021/06/25 01:00:43;;;;;;;19.05;9.30;;;24.50;81.90;;;;;;1887206;76;21456;-49
2021/06/25 01:03:14;;;;;;;15.38;9.78;;;24.50;82.10;;;;;;1887059;75;21038;-51
2021/06/25 01:05:44;;;;;;;17.35;10.58;;;24.50;82.00;;;;;;1886455;76;21659;-51
2021/06/25 01:08:13;;;;;;;15.78;10.13;;;24.40;82.00;;;;;;1887086;75;21108;-49
2021/06/25 01:10:43;;;;;;;16.57;9.05;;;24.30;81.90;;;;;;1887173;76;21107;-49
2021/06/25 01:13:13;;;;;;;17.50;10.15;;;24.30;82.00;;;;;;1887072;75;21026;-50
2021/06/25 01:15:42;;;;;;;13.18;10.10;;;24.30;82.20;;;;;;1886976;75;21041;-48
2021/06/25 01:18:12;;;;;;;16.35;10.13;;;24.30;82.20;;;;;;1869375;75;21130;-50
2021/06/25 01:20:41;;;;;;;17.10;9.53;;;24.30;82.20;;;;;;1865670;77;21110;-49
2021/06/25 01:23:11;;;;;;;14.75;9.00;;;24.30;82.30;;;;;;1865609;76;21070;-48
2021/06/25 01:25:40;;;;;;;15.72;9.08;;;24.30;82.40;;;;;;1865650;76;21031;-50
2021/06/25 01:28:12;;;;;;;12.58;7.55;;;24.30;82.30;;;;;;1865727;77;21022;-46
2021/06/25 01:30:43;;;;;;;20.82;8.60;;;24.40;82.40;;;;;;1865748;77;21156;-46
2021/06/25 01:33:15;;;;;;;31.52;11.38;;;24.40;82.40;;;;;;1865713;76;21039;-49
2021/06/25 01:35:45;;;;;;;14.70;7.97;;;24.40;82.30;;;;;;1865739;77;21148;-50
2021/06/25 01:38:14;;;;;;;17.73;9.53;;;24.40;82.80;;;;;;1865721;77;21508;-49
2021/06/25 01:40:44;;;;;;;16.15;9.43;;;24.40;82.10;;;;;;1865765;77;21096;-49
2021/06/25 01:43:14;;;;;;;12.80;8.58;;;24.40;82.00;;;;;;1865826;77;21042;-49
2021/06/25 01:45:44;;;;;;;16.97;9.08;;;24.30;82.00;;;;;;1865838;77;21105;-50
2021/06/25 01:48:13;;;;;;;18.75;9.63;;;24.20;82.30;;;;;;1865711;76;21038;-50
2021/06/25 01:50:44;;;;;;;20.57;9.70;;;24.20;82.70;;;;;;1865872;76;21059;-50
2021/06/25 01:53:15;;;;;;;20.00;9.18;;;24.20;82.70;;;;;;1865751;77;21035;-50
2021/06/25 01:55:45;;;;;;;15.72;8.33;;;24.20;82.80;;;;;;1865691;77;21160;-48
2021/06/25 01:58:17;;;;;;;16.30;8.83;;;24.30;82.80;;;;;;1865800;77;21063;-48
2021/06/25 02:00:52;;;;;;;19.90;8.18;;;24.30;82.70;;;;;;1865709;76;21043;-48
2021/06/25 02:03:21;;;;;;;26.00;11.30;;;24.30;82.60;;;;;;1865740;76;21144;-46
2021/06/25 02:05:50;;;;;;;22.60;13.53;;;24.30;82.40;;;;;;1865775;76;21050;-50
2021/06/25 02:08:20;;;;;;;20.65;12.70;;;24.30;82.30;;;;;;1865701;77;21043;-48
2021/06/25 02:10:51;;;;;;;18.98;13.25;;;24.20;82.50;;;;;;1865842;76;21050;-48
2021/06/25 02:13:20;;;;;;;16.80;12.15;;;24.10;82.70;;;;;;1865706;77;21493;-50
2021/06/25 02:15:49;;;;;;;18.17;10.40;;;24.00;82.90;;;;;;1865696;77;21126;-50
2021/06/25 02:18:19;;;;;;;21.45;12.33;;;24.00;83.10;;;;;;1865656;76;21074;-48
2021/06/25 02:20:49;;;;;;;15.93;11.15;;;23.90;83.30;;;;;;1865970;76;21039;-47
2021/06/25 02:23:18;;;;;;;16.90;10.98;;;23.90;83.30;;;;;;1865730;76;21031;-47
2021/06/25 02:25:48;;;;;;;16.77;10.18;;;23.90;83.50;;;;;;1865742;76;21105;-49
2021/06/25 02:28:17;;;;;;;17.12;10.23;;;23.90;83.50;;;;;;1865739;76;21055;-48
2021/06/25 02:30:47;;;;;;;16.73;10.85;;;23.90;83.60;;;;;;1865800;77;21106;-50
2021/06/25 02:33:16;;;;;;;14.10;10.18;;;24.00;83.40;;;;;;1865667;77;21085;-48
2021/06/25 02:35:45;;;;;;;12.90;9.80;;;23.90;83.30;;;;;;1865670;77;21077;-49
2021/06/25 02:38:15;;;;;;;19.62;9.70;;;23.90;83.40;;;;;;1865678;76;21104;-49
2021/06/25 02:40:44;;;;;;;15.95;9.28;;;23.80;83.60;;;;;;1865691;77;21078;-48
2021/06/25 02:43:14;;;;;;;11.60;7.85;;;23.90;83.70;;;;;;1865710;77;21158;-49
2021/06/25 02:45:43;;;;;;;15.10;9.30;;;23.90;83.70;;;;;;1865754;76;21011;-48
2021/06/25 02:48:12;;;;;;;12.85;9.20;;;23.90;83.60;;;;;;1865784;76;21488;-46
2021/06/25 02:50:41;;;;;;;12.93;9.15;;;24.00;83.40;;;;;;1865697;76;21078;-49
2021/06/25 02:53:11;;;;;;;13.38;8.58;;;23.90;83.30;;;;;;1865708;77;21143;-50
2021/06/25 02:55:52;;;;;;;12.07;8.90;;;24.00;83.40;;;;;;1865748;77;21055;-50
2021/06/25 02:58:24;;;;;;;54.95;49.45;;;24.00;83.50;;;;;;1865814;77;21112;-48
2021/06/25 03:00:55;;;;;;;91.37;81.53;;;24.00;83.40;;;;;;1865781;76;21086;-49
2021/06/25 03:03:24;;;;;;;59.58;48.02;;;24.00;83.40;;;;;;1865825;76;21027;-50
2021/06/25 03:05:54;;;;;;;37.35;32.67;;;24.00;83.40;;;;;;1865834;77;21034;-47
2021/06/25 03:08:23;;;;;;;46.90;41.68;;;24.00;83.30;;;;;;1865908;77;21010;-49
2021/06/25 03:10:53;;;;;;;25.37;20.80;;;24.10;83.40;;;;;;1865914;77;21054;-49
2021/06/25 03:13:23;;;;;;;21.17;13.22;;;24.10;83.30;;;;;;1865858;77;21058;-48
2021/06/25 03:15:52;;;;;;;44.27;35.68;;;24.10;83.10;;;;;;1865896;77;21046;-50
2021/06/25 03:18:22;;;;;;;59.85;46.20;;;24.10;83.10;;;;;;1873946;75;21114;-45
2021/06/25 03:20:51;;;;;;;72.82;49.75;;;24.10;83.10;;;;;;1887185;75;21159;-48
2021/06/25 03:23:21;;;;;;;59.38;43.23;;;24.20;83.10;;;;;;1887165;76;21025;-48
2021/06/25 03:25:50;;;;;;;46.73;33.38;;;24.20;83.10;;;;;;1887169;75;21112;-49
2021/06/25 03:28:20;;;;;;;41.40;26.05;;;24.30;83.00;;;;;;1887040;76;21136;-50
2021/06/25 03:30:49;;;;;;;38.63;26.35;;;24.30;82.90;;;;;;1887179;75;21017;-49
2021/06/25 03:33:18;;;;;;;33.70;23.18;;;24.40;82.60;;;;;;1887152;76;21042;-48
2021/06/25 03:35:48;;;;;;;36.58;20.60;;;24.50;82.50;;;;;;1887113;75;21053;-47
2021/06/25 03:38:17;;;;;;;27.48;18.23;;;24.50;82.20;;;;;;1887128;75;21037;-48
2021/06/25 03:40:47;;;;;;;24.18;13.88;;;24.50;82.00;;;;;;1887025;76;21037;-50
2021/06/25 03:43:16;;;;;;;23.55;14.70;;;24.60;81.80;;;;;;1887067;76;21034;-47
2021/06/25 03:45:46;;;;;;;22.17;15.63;;;24.60;81.70;;;;;;1887114;76;21100;-47
2021/06/25 03:48:15;;;;;;;18.30;12.65;;;24.60;81.80;;;;;;1887155;76;21033;-48
2021/06/25 03:50:45;;;;;;;18.10;12.58;;;24.60;81.90;;;;;;1887190;75;21042;-47
2021/06/25 03:53:14;;;;;;;20.43;11.63;;;24.50;82.10;;;;;;1887094;75;21038;-47
2021/06/25 03:58:31;;;;;;;16.55;11.53;;;24.60;82.30;;;;;;1887066;75;21112;-49
2021/06/25 04:01:01;;;;;;;18.82;11.93;;;24.60;82.20;;;;;;1887133;76;21010;-50
2021/06/25 04:03:30;;;;;;;29.77;14.83;;;24.60;82.20;;;;;;1887001;76;21099;-48
2021/06/25 04:06:00;;;;;;;23.55;13.45;;;24.70;82.20;;;;;;1887161;76;21107;-48
2021/06/25 04:08:30;;;;;;;18.82;11.75;;;24.80;82.10;;;;;;1887078;76;21108;-48
2021/06/25 04:11:00;;;;;;;24.47;12.73;;;24.80;81.70;;;;;;1887032;76;21022;-47
2021/06/25 04:13:30;;;;;;;19.00;10.50;;;24.80;81.70;;;;;;1887101;75;21006;-49
2021/06/25 04:16:00;;;;;;;18.50;12.65;;;24.80;81.70;;;;;;1886966;76;21034;-46
2021/06/25 04:18:30;;;;;;;19.67;11.60;;;24.90;81.70;;;;;;1883104;75;21521;-47
2021/06/25 04:21:00;;;;;;;21.42;11.33;;;25.00;81.50;;;;;;1865744;77;21043;-47
2021/06/25 04:23:29;;;;;;;14.87;10.40;;;25.10;81.20;;;;;;1865617;76;21118;-46
2021/06/25 04:25:59;;;;;;;17.65;11.30;;;25.30;80.80;;;;;;1865634;77;21460;-48
2021/06/25 04:28:28;;;;;;;18.92;10.82;;;25.40;80.50;;;;;;1865600;77;21042;-47
2021/06/25 04:30:58;;;;;;;17.95;10.60;;;25.60;80.20;;;;;;1865772;77;21042;-48
2021/06/25 04:33:27;;;;;;;14.60;9.75;;;25.70;79.80;;;;;;1865757;76;21041;-46
2021/06/25 04:35:57;;;;;;;18.20;11.45;;;25.90;79.50;;;;;;1865714;77;21043;-47
2021/06/25 04:38:26;;;;;;;17.82;12.50;;;26.00;79.20;;;;;;1865657;76;21011;-48
2021/06/25 04:40:55;;;;;;;20.85;13.18;;;26.00;78.90;;;;;;1865618;77;21035;-47
2021/06/25 04:43:25;;;;;;;18.57;12.07;;;26.10;79.00;;;;;;1865800;77;21108;-48
2021/06/25 04:45:55;;;;;;;18.98;11.78;;;26.10;79.00;;;;;;1865718;76;21109;-46
2021/06/25 04:48:24;;;;;;;19.67;11.97;;;26.10;79.00;;;;;;1865718;76;21038;-50
2021/06/25 04:50:54;;;;;;;21.23;12.23;;;26.20;79.60;;;;;;1865874;77;21461;-47
2021/06/25 04:53:24;;;;;;;18.07;12.15;;;26.20;79.20;;;;;;1865748;77;21034;-47
2021/06/25 04:55:54;;;;;;;16.02;10.23;;;26.20;79.40;;;;;;1865727;77;21051;-50
2021/06/25 04:58:26;;;;;;;16.80;11.00;;;26.20;79.50;;;;;;1865654;77;21077;-49
2021/06/25 05:00:54;;;;;;;19.05;10.93;;;26.10;79.60;;;;;;1865610;77;21105;-47
2021/06/25 05:03:23;;;;;;;21.52;13.00;;;26.10;79.80;;;;;;1865584;77;21163;-48
2021/06/25 05:05:52;;;;;;;17.27;11.68;;;26.10;80.10;;;;;;1865739;77;21078;-46
2021/06/25 05:08:22;;;;;;;18.20;10.40;;;26.10;80.30;;;;;;1865895;76;21161;-47
2021/06/25 05:10:51;;;;;;;21.85;11.05;;;26.20;80.20;;;;;;1865919;77;21031;-47
2021/06/25 05:13:21;;;;;;;16.23;9.48;;;26.30;79.90;;;;;;1865810;77;21027;-48
2021/06/25 05:15:50;;;;;;;13.85;10.10;;;26.40;79.60;;;;;;1865731;77;21026;-47
2021/06/25 05:18:21;;;;;;;23.87;12.85;;;26.50;79.20;;;;;;1865754;77;21531;-48
2021/06/25 05:20:52;;;;;;;21.95;11.05;;;26.60;79.10;;;;;;1865726;76;21031;-48
2021/06/25 05:23:22;;;;;;;34.25;13.80;;;26.60;79.00;;;;;;1865824;77;21071;-50
2021/06/25 05:25:51;;;;;;;15.75;9.93;;;26.60;78.80;;;;;;1865896;77;21031;-46
2021/06/25 05:28:21;;;;;;;14.18;9.88;;;26.60;78.30;;;;;;1865712;77;21074;-49
2021/06/25 05:30:50;;;;;;;16.57;9.53;;;26.60;77.80;;;;;;1865810;77;21088;-50
2021/06/25 05:33:19;;;;;;;14.28;8.85;;;26.60;77.80;;;;;;1865508;77;21109;-47
2021/06/25 05:35:49;;;;;;;15.35;8.85;;;26.60;77.70;;;;;;1865635;77;21011;-49
2021/06/25 05:38:18;;;;;;;16.55;9.65;;;26.60;77.80;;;;;;1865717;77;21042;-47
2021/06/25 05:40:48;;;;;;;21.97;10.95;;;26.60;77.80;;;;;;1865766;77;21066;-47
2021/06/25 05:43:17;;;;;;;11.83;8.50;;;26.70;77.90;;;;;;1865844;77;21047;-47
2021/06/25 05:45:47;;;;;;;16.20;8.78;;;26.70;77.40;;;;;;1865703;77;21031;-49
2021/06/25 05:48:16;;;;;;;21.90;9.13;;;26.80;77.20;;;;;;1865694;77;21026;-49
2021/06/25 05:50:46;;;;;;;15.18;9.13;;;26.70;77.00;;;;;;1865683;77;21101;-46
2021/06/25 05:53:15;;;;;;;12.55;8.08;;;26.80;77.10;;;;;;1865638;76;21034;-48
2021/06/25 05:55:44;;;;;;;17.67;9.20;;;26.80;77.00;;;;;;1865565;77;21093;-47
2021/06/25 05:58:14;;;;;;;16.82;10.18;;;26.80;76.60;;;;;;1865515;76;21101;-50
2021/06/25 06:00:43;;;;;;;11.33;8.18;;;26.80;76.50;;;;;;1865699;77;21015;-47
2021/06/25 06:03:12;;;;;;;20.82;9.85;;;26.90;76.40;;;;;;1865610;76;21062;-48
2021/06/25 06:05:42;;;;;;;10.45;7.67;;;26.90;76.30;;;;;;1865665;77;21112;-50
2021/06/25 06:08:11;;;;;;;13.70;7.55;;;26.90;76.20;;;;;;1865738;77;21035;-47
2021/06/25 06:10:41;;;;;;;14.50;8.53;;;26.90;76.10;;;;;;1865743;77;21043;-48
2021/06/25 06:13:10;;;;;;;14.58;8.00;;;26.90;76.20;;;;;;1865725;77;21101;-46
2021/06/25 06:15:39;;;;;;;15.23;9.13;;;27.00;76.10;;;;;;1865672;77;21038;-49
2021/06/25 06:18:09;;;;;;;14.00;8.05;;;27.00;75.80;;;;;;1865668;77;21116;-47
2021/06/25 06:20:38;;;;;;;15.40;7.75;;;27.00;75.60;;;;;;1877953;75;21082;-48
2021/06/25 06:31:32;;;;;;;12.40;7.42;;;27.60;74.40;;;;;;1887058;75;21049;-49
2021/06/25 06:34:10;;;;;;;10.82;7.83;;;27.70;74.10;;;;;;1887287;75;21053;-48
2021/06/25 06:36:45;;;;;;;16.70;8.03;;;27.80;73.90;;;;;;1887185;76;21053;-47
2021/06/25 06:39:17;;;;;;;16.27;7.97;;;27.80;73.60;;;;;;1887190;76;21050;-50
2021/06/25 06:41:46;;;;;;;14.83;7.83;;;27.90;73.50;;;;;;1887121;75;21038;-50
2021/06/25 06:44:16;;;;;;;11.65;7.78;;;28.00;73.10;;;;;;1887141;76;21038;-48
2021/06/25 06:46:46;;;;;;;12.30;7.67;;;27.90;72.70;;;;;;1887245;76;21034;-48
2021/06/25 06:49:16;;;;;;;13.13;7.78;;;27.90;72.50;;;;;;1887110;76;21034;-48
2021/06/25 06:51:45;;;;;;;13.13;8.13;;;27.80;72.60;;;;;;1887082;76;21038;-46
2021/06/25 06:54:15;;;;;;;13.28;8.03;;;27.70;72.80;;;;;;1887075;76;21119;-49
2021/06/25 06:56:45;;;;;;;12.93;8.48;;;27.60;73.00;;;;;;1887018;75;21014;-50
2021/06/25 06:59:14;;;;;;;15.58;8.68;;;27.60;73.40;;;;;;1887191;76;21175;-50
2021/06/25 07:01:44;;;;;;;19.35;9.63;;;27.50;73.60;;;;;;1887095;76;21147;-49
2021/06/25 07:04:13;;;;;;;15.93;8.38;;;27.40;73.90;;;;;;1887162;76;21049;-48
2021/06/25 07:06:42;;;;;;;19.67;8.68;;;27.40;74.10;;;;;;1887140;76;21026;-48
2021/06/25 07:09:12;;;;;;;12.70;9.25;;;27.30;74.20;;;;;;1887014;75;21045;-48
2021/06/25 07:11:41;;;;;;;13.93;8.75;;;27.30;74.40;;;;;;1887024;76;21091;-48
2021/06/25 07:14:10;;;;;;;18.17;11.90;;;27.20;74.70;;;;;;1886980;76;21036;-47
2021/06/25 07:16:39;;;;;;;14.70;9.03;;;27.20;74.90;;;;;;1887086;76;21571;-47
2021/06/25 07:19:09;;;;;;;12.93;9.05;;;27.20;75.10;;;;;;1887017;76;21037;-47
2021/06/25 07:21:38;;;;;;;13.13;9.40;;;27.20;75.70;;;;;;1870555;76;21039;-48
2021/06/25 07:24:09;;;;;;;14.75;10.70;;;27.20;76.30;;;;;;1865674;77;21027;-49
2021/06/25 07:26:38;;;;;;;15.48;10.70;;;27.20;77.10;;;;;;1865624;76;21124;-47
2021/06/25 07:29:09;;;;;;;14.23;12.13;;;27.20;77.60;;;;;;1865646;76;21035;-49
2021/06/25 07:31:39;;;;;;;19.15;10.15;;;27.10;77.90;;;;;;1865657;77;21105;-47
2021/06/25 07:34:08;;;;;;;19.82;10.82;;;27.00;78.30;;;;;;1865722;77;21038;-49
2021/06/25 07:36:37;;;;;;;17.85;11.15;;;27.00;78.80;;;;;;1865617;77;21499;-47
2021/06/25 07:39:09;;;;;;;15.08;11.40;;;27.00;79.10;;;;;;1865687;77;21100;-48
2021/06/25 07:41:39;;;;;;;16.55;10.08;;;26.90;79.40;;;;;;1865601;76;21092;-49
2021/06/25 07:44:09;;;;;;;16.52;12.15;;;26.90;79.50;;;;;;1865630;77;21156;-47
2021/06/25 07:46:38;;;;;;;12.40;10.80;;;27.00;79.90;;;;;;1865618;76;21096;-48
2021/06/25 07:49:07;;;;;;;19.23;10.50;;;27.00;80.10;;;;;;1865651;77;21118;-47
2021/06/25 07:51:37;;;;;;;16.05;10.85;;;27.00;80.20;;;;;;1865729;77;21108;-46
2021/06/25 07:54:06;;;;;;;16.87;10.43;;;27.00;80.20;;;;;;1865766;76;21006;-47
2021/06/25 07:56:36;;;;;;;11.03;9.30;;;27.10;80.30;;;;;;1865555;77;21002;-49
2021/06/25 07:59:05;;;;;;;13.85;10.23;;;27.10;80.20;;;;;;1865638;77;21062;-47
2021/06/25 08:01:34;;;;;;;16.60;10.20;;;27.10;80.00;;;;;;1865603;77;21019;-50
2021/06/25 08:04:04;;;;;;;14.50;9.83;;;27.10;80.10;;;;;;1865546;77;21547;-47
2021/06/25 08:06:33;;;;;;;11.65;8.68;;;27.10;80.60;;;;;;1865710;77;21038;-47
2021/06/25 08:09:04;;;;;;;15.65;9.90;;;27.10;79.90;;;;;;1865740;76;21117;-45
2021/06/25 08:11:34;;;;;;;14.73;9.55;;;27.20;79.90;;;;;;1865674;76;21078;-47
2021/06/25 08:14:03;;;;;;;15.40;8.88;;;27.20;79.80;;;;;;1864980;77;21371;-48
2021/06/25 08:16:32;;;;;;;15.38;10.20;;;27.30;79.40;;;;;;1864313;77;21070;-49
2021/06/25 08:19:02;;;;;;;13.28;9.33;;;27.30;79.20;;;;;;1865138;76;21163;-47
2021/06/25 08:21:31;;;;;;;27.45;10.72;;;27.40;79.20;;;;;;1875845;75;21041;-48
2021/06/25 08:24:01;;;;;;;15.50;8.23;;;27.40;78.80;;;;;;1887087;76;21457;-51
2021/06/25 08:26:31;;;;;;;19.02;8.90;;;27.40;78.80;;;;;;1887016;75;21037;-50
2021/06/25 08:29:00;;;;;;;17.52;12.05;;;27.40;78.70;;;;;;1887059;75;21010;-47
2021/06/25 08:31:30;;;;;;;19.77;10.75;;;27.60;79.10;;;;;;1886986;76;21058;-50
2021/06/25 08:33:59;;;;;;;14.53;9.10;;;27.60;79.40;;;;;;1887164;76;21002;-50
2021/06/25 08:36:28;;;;;;;15.68;9.90;;;27.70;79.00;;;;;;1886925;76;21183;-49
2021/06/25 08:38:58;;;;;;;25.85;12.07;;;27.80;79.00;;;;;;1886950;76;21037;-50
2021/06/25 08:41:28;;;;;;;16.23;9.75;;;27.90;78.50;;;;;;1886889;76;21033;-50
2021/06/25 08:43:57;;;;;;;14.78;9.23;;;28.00;78.00;;;;;;1886905;75;21026;-50
2021/06/25 08:46:30;;;;;;;18.70;9.50;;;28.10;77.50;;;;;;1887093;76;21042;-50
2021/06/25 08:49:00;;;;;;;12.20;8.18;;;28.30;76.80;;;;;;1887038;76;21095;-50
2021/06/25 08:51:29;;;;;;;15.98;8.20;;;28.30;76.10;;;;;;1887074;76;21033;-50
2021/06/25 08:53:59;;;;;;;19.98;8.63;;;28.50;76.00;;;;;;1887206;76;21050;-51
2021/06/25 08:56:32;;;;;;;15.58;8.20;;;28.60;75.50;;;;;;1887142;76;21088;-50
2021/06/25 08:59:02;;;;;;;16.52;8.58;;;28.80;75.90;;;;;;1887211;76;21054;-48
2021/06/25 09:01:37;;;;;;;14.18;8.28;;;28.80;74.30;;;;;;1887123;75;21092;-47
2021/06/25 09:04:07;;;;;;;14.87;9.30;;;28.90;74.00;;;;;;1887069;76;21065;-48
2021/06/25 09:06:37;;;;;;;17.00;9.05;;;28.90;73.70;;;;;;1887080;76;21013;-48
2021/06/25 09:09:11;;;;;;;13.98;8.65;;;28.90;73.60;;;;;;1883576;76;21468;-50
2021/06/25 09:11:42;;;;;;;16.50;9.05;;;28.90;73.60;;;;;;1886870;75;21088;-47
2021/06/25 09:14:12;;;;;;;17.00;9.55;;;28.90;73.80;;;;;;1887082;75;21554;-48
2021/06/25 09:16:42;;;;;;;16.90;8.65;;;29.00;73.50;;;;;;1887102;76;21095;-47
2021/06/25 09:19:18;;;;;;;14.83;8.98;;;29.10;73.20;;;;;;1887038;76;21085;-50
2021/06/25 09:22:05;;;;;;;12.25;7.42;;;29.30;73.60;;;;;;1879589;75;21144;-48
2021/06/25 09:24:34;;;;;;;16.32;9.10;;;29.50;72.50;;;;;;1865711;76;21109;-48
2021/06/25 09:27:06;;;;;;;9.73;7.10;;;29.70;71.90;;;;;;1865773;76;21122;-48
2021/06/25 09:29:39;;;;;;;12.40;7.78;;;29.80;71.40;;;;;;1865717;77;21039;-48
2021/06/25 09:32:10;;;;;;;15.75;8.08;;;29.90;70.90;;;;;;1865741;76;21104;-48
2021/06/25 09:34:47;;;;;;;18.23;8.13;;;30.00;70.30;;;;;;1865270;77;21148;-51
2021/06/25 09:37:18;;;;;;;16.35;11.12;;;30.00;69.80;;;;;;1865735;77;21050;-49
2021/06/25 09:40:01;;;;;;;17.27;8.33;;;30.10;69.90;;;;;;1865655;77;21095;-50
2021/06/25 09:42:31;;;;;;;13.20;7.58;;;30.20;69.00;;;;;;1865686;77;21093;-50
2021/06/25 09:45:02;;;;;;;8.05;6.33;;;30.30;68.60;;;;;;1865798;77;21035;-48
2021/06/25 09:47:34;;;;;;;15.03;7.28;;;30.40;67.80;;;;;;1865733;76;21496;-50
2021/06/25 09:50:12;;;;;;;16.65;9.65;;;30.50;67.60;;;;;;1865734;77;21034;-49
2021/06/25 09:52:59;;;;;;;13.15;7.42;;;30.50;67.40;;;;;;1865629;76;21113;-48
2021/06/25 09:55:31;;;;;;;11.38;7.45;;;30.50;67.20;;;;;;1865518;77;21043;-50
2021/06/25 09:58:17;;;;;;;10.78;7.75;;;30.40;66.90;;;;;;1863737;77;21023;-50
2021/06/25 10:03:56;;;;;;;9.97;6.43;;;30.40;67.20;;;;;;1865945;77;21168;-48
2021/06/25 10:06:28;;;;;;;17.92;7.83;;;30.30;67.90;;;;;;1865805;77;21138;-47
2021/06/25 10:08:58;;;;;;;13.70;7.22;;;30.30;67.60;;;;;;1865700;76;21109;-49
2021/06/25 10:11:29;;;;;;;9.80;6.72;;;30.30;67.70;;;;;;1865635;77;21116;-51
2021/06/25 10:14:00;;;;;;;13.48;8.10;;;30.30;67.90;;;;;;1865703;76;21007;-51
2021/06/25 10:16:31;;;;;;;10.18;7.12;;;30.30;67.80;;;;;;1865261;77;21096;-48
2021/06/25 10:19:00;;;;;;;14.53;8.85;;;30.40;67.50;;;;;;1865813;76;21035;-51
2021/06/25 10:21:34;;;;;;;12.30;6.97;;;30.40;67.30;;;;;;1865662;77;21039;-47
2021/06/25 10:24:05;;;;;;;17.07;7.12;;;30.40;67.20;;;;;;1865868;76;21117;-49
2021/06/25 10:26:34;;;;;;;8.90;6.35;;;30.40;66.90;;;;;;1865758;77;21014;-49
2021/06/25 10:29:04;;;;;;;13.98;7.55;;;30.40;66.70;;;;;;1865683;77;21035;-51
2021/06/25 10:31:34;;;;;;;12.82;6.97;;;30.40;66.50;;;;;;1865664;76;21102;-49
2021/06/25 10:34:04;;;;;;;12.75;6.62;;;30.30;66.60;;;;;;1865805;77;21035;-50
2021/06/25 10:36:36;;;;;;;12.37;7.22;;;30.40;67.00;;;;;;1865776;76;21042;-50
2021/06/25 10:39:10;;;;;;;10.28;6.53;;;30.50;66.50;;;;;;1865949;76;21066;-51
2021/06/25 10:41:49;;;;;;;;;;;30.60;66.50;;;;;;1868482;77;21043;-49
2021/06/25 10:44:33;;;;;;;13.28;7.17;;;30.60;65.50;;;;;;1865728;77;20398;-51
2021/06/25 10:47:27;;;;;;;9.88;7.20;;;30.60;66.10;;;;;;1825659;77;21058;-50
2021/06/25 10:50:05;;;;;;;14.23;8.93;;;30.60;65.50;;;;;;1865886;76;21051;-51
2021/06/25 10:52:36;;;;;;;18.07;7.97;;;30.50;65.90;;;;;;1865659;76;21109;-49
2021/06/25 10:55:08;;;;;;;9.83;7.12;;;30.50;65.90;;;;;;1865718;76;21151;-49
2021/06/25 10:57:40;;;;;;;12.18;7.03;;;30.50;65.60;;;;;;1865675;75;21038;-51
2021/06/25 11:00:09;;;;;;;18.65;6.50;;;30.60;65.30;;;;;;1853874;77;21081;-47
2021/06/25 11:02:44;;;;;;;18.87;7.42;;;30.60;65.10;;;;;;1865587;76;21145;-49
2021/06/25 11:05:36;;;;;;;17.80;7.62;;;30.70;65.70;;;;;;1865538;76;21046;-51
2021/06/25 11:08:20;;;;;;;12.35;6.10;;;30.80;65.00;;;;;;1865740;76;21078;-49
2021/06/25 11:10:57;;;;;;;10.93;6.62;;;30.90;64.10;;;;;;1865868;76;21422;-50
2021/06/25 11:13:35;;;;;;;9.23;6.78;;;31.00;63.70;;;;;;1865665;77;21055;-49
2021/06/25 11:16:04;;;;;;;16.90;6.90;;;31.10;63.70;;;;;;1865409;76;21023;-48
2021/06/25 11:18:35;;;;;;;9.95;6.42;;;31.10;63.60;;;;;;1861127;77;21031;-50
2021/06/25 11:21:10;;;;;;;15.23;6.62;;;31.20;63.70;;;;;;1864643;77;21102;-49
2021/06/25 11:23:40;;;;;;;;;;;31.30;63.80;;;;;;1882128;75;21046;-48
2021/06/25 11:26:18;;;;;;;8.63;6.40;;;31.40;63.50;;;;;;1887125;76;20136;-50
2021/06/25 11:28:55;;;;;;;9.60;6.37;;;31.30;63.80;;;;;;1887033;75;21034;-50
2021/06/25 11:31:27;;;;;;;11.22;7.10;;;31.30;63.90;;;;;;1871708;76;21116;-48
2021/06/25 11:33:58;;;;;;;17.40;6.37;;;31.30;63.70;;;;;;1886804;75;21555;-50
2021/06/25 11:36:47;;;;;;;10.00;7.00;;;31.30;63.60;;;;;;1887192;76;21096;-49
2021/06/25 11:39:25;;;;;;;9.75;6.08;;;31.30;63.80;;;;;;1876015;76;21029;-47
2021/06/25 11:41:57;;;;;;;9.78;5.92;;;31.30;63.80;;;;;;1887177;76;21547;-50
2021/06/25 11:44:29;;;;;;;11.25;6.10;;;31.40;63.60;;;;;;1887010;76;20998;-49
2021/06/25 11:47:03;;;;;;;9.48;6.35;;;31.40;63.20;;;;;;1886996;76;21100;-51
2021/06/25 11:49:59;;;;;;;35.88;12.85;;;31.50;63.30;;;;;;1886985;76;21053;-48
2021/06/25 11:52:25;;;;;;;13.60;8.28;;;31.50;63.10;;;;;;1885216;75;21038;-48
2021/06/25 11:54:57;;;;;;;11.60;6.25;;;31.60;62.90;;;;;;1887170;76;21038;-51
2021/06/25 11:57:31;;;;;;;11.73;6.75;;;31.70;62.60;;;;;;1886198;75;21157;-47
2021/06/25 12:00:03;;;;;;;17.10;8.03;;;31.80;62.40;;;;;;1887129;76;21115;-50
2021/06/25 12:02:47;;;;;;;18.00;6.78;;;31.80;62.50;;;;;;1887042;76;21460;-52
2021/06/25 12:05:33;;;;;;;7.67;5.75;;;32.00;62.10;;;;;;1887109;76;21037;-48
2021/06/25 12:08:10;;;;;;;11.30;6.58;;;31.90;61.50;;;;;;1887056;76;21083;-47
2021/06/25 12:10:56;;;;;;;15.68;6.08;;;31.90;61.80;;;;;;1887034;76;21104;-50
2021/06/25 12:13:26;;;;;;;8.08;6.45;;;31.80;61.80;;;;;;1886998;75;21093;-51
2021/06/25 12:15:55;;;;;;;9.70;6.85;;;31.50;61.70;;;;;;1887063;75;21134;-48
2021/06/25 12:18:27;;;;;;;10.90;7.10;;;31.40;62.40;;;;;;1887032;76;21104;-47
2021/06/25 12:21:09;;;;;;;12.70;6.62;;;31.30;63.10;;;;;;1886955;76;21116;-47
2021/06/25 12:23:39;;;;;;;9.70;6.10;;;31.20;63.40;;;;;;1886942;75;21069;-49
2021/06/25 12:26:16;;;;;;;7.90;6.62;;;31.30;63.10;;;;;;1887067;76;21030;-47
2021/06/25 12:28:45;;;;;;;9.48;6.25;;;31.40;63.00;;;;;;1887100;76;21054;-50
2021/06/25 12:31:20;;;;;;;13.00;7.37;;;31.40;62.90;;;;;;1887021;76;21104;-50
2021/06/25 12:33:49;;;;;;;8.85;6.10;;;31.40;63.10;;;;;;1887209;76;21089;-48
2021/06/25 12:36:19;;;;;;;11.30;7.25;;;31.20;63.20;;;;;;1884339;76;21002;-52
2021/06/25 12:38:52;;;;;;;9.95;7.03;;;31.00;63.50;;;;;;1887108;75;21038;-49
2021/06/25 12:41:19;;;;;;;11.30;6.05;;;30.90;63.80;;;;;;1886973;76;21042;-51
2021/06/25 12:43:50;;;;;;;14.80;6.85;;;30.70;64.00;;;;;;1887057;76;21558;-52
2021/06/25 12:46:21;;;;;;;12.65;6.70;;;30.50;64.20;;;;;;1886989;76;21492;-50
2021/06/25 12:48:55;;;;;;;16.77;8.10;;;30.40;64.80;;;;;;1886972;76;21096;-51
2021/06/25 12:51:27;;;;;;;13.30;7.65;;;30.30;65.40;;;;;;1887146;76;21013;-51
2021/06/25 12:53:58;;;;;;;11.63;6.87;;;30.20;65.70;;;;;;1853993;77;21099;-50
2021/06/25 12:56:36;;;;;;;16.17;8.10;;;30.10;65.90;;;;;;1851509;77;21011;-49
2021/06/25 12:59:20;;;;;;;10.40;6.53;;;30.10;66.30;;;;;;1821183;78;21085;-51
2021/06/25 13:02:00;;;;;;;9.20;6.83;;;30.10;66.40;;;;;;1851636;77;21026;-51
2021/06/25 13:04:34;;;;;;;12.90;7.35;;;30.00;66.40;;;;;;1821127;79;21050;-48
2021/06/25 13:07:04;;;;;;;14.70;8.43;;;30.00;66.50;;;;;;1851677;76;21035;-48
2021/06/25 13:09:37;;;;;;;10.72;7.35;;;30.00;66.50;;;;;;1817779;78;21045;-48